sensor_id;sensor_type;location;lat;lon;timestamp;pressure;altitude;pressure_sealevel;temperature;humidity
55675;BME280;41562;44.330;23.802;2024-03-02T00:00:39;99908.13;;;8.12;100.00
55675;BME280;41562;44.330;23.802;2024-03-02T00:03:07;99918.00;;;8.12;100.00
55675;BME280;41562;44.330;23.802;2024-03-02T00:05:34;99927.84;;;8.16;100.00
55675;BME280;41562;44.330;23.802;2024-03-02T00:08:04;99935.81;;;8.11;100.00
55675;BME280;41562;44.330;23.802;2024-03-02T00:10:39;99942.06;;;8.37;100.00
55675;BME280;41562;44.330;23.802;2024-03-02T00:13:08;99951.28;;;8.14;100.00
55675;BME280;41562;44.330;23.802;2024-03-02T00:15:51;99948.31;;;8.00;100.00
55675;BME280;41562;44.330;23.802;2024-03-02T00:18:39;99947.25;;;8.01;100.00
55675;BME280;41562;44.330;23.802;2024-03-02T00:21:08;99960.91;;;8.20;100.00
55675;BME280;41562;44.330;23.802;2024-03-02T00:23:36;99974.19;;;8.15;100.00
55675;BME280;41562;44.330;23.802;2024-03-02T00:26:06;99978.97;;;8.08;100.00
55675;BME280;41562;44.330;23.802;2024-03-02T00:28:34;99973.13;;;8.16;100.00
55675;BME280;41562;44.330;23.802;2024-03-02T00:31:09;99974.78;;;8.27;100.00
55675;BME280;41562;44.330;23.802;2024-03-02T00:33:41;99965.75;;;8.33;100.00
55675;BME280;41562;44.330;23.802;2024-03-02T00:36:08;99957.25;;;8.41;100.00
55675;BME280;41562;44.330;23.802;2024-03-02T00:38:45;99956.13;;;8.27;100.00
55675;BME280;41562;44.330;23.802;2024-03-02T00:41:29;99940.16;;;8.27;100.00
55675;BME280;41562;44.330;23.802;2024-03-02T00:44:04;99932.75;;;8.34;100.00
55675;BME280;41562;44.330;23.802;2024-03-02T00:46:42;99932.75;;;8.39;100.00
55675;BME280;41562;44.330;23.802;2024-03-02T00:49:20;99936.88;;;8.10;100.00
55675;BME280;41562;44.330;23.802;2024-03-02T00:51:49;99917.47;;;8.15;100.00
55675;BME280;41562;44.330;23.802;2024-03-02T00:54:21;99903.63;;;8.18;100.00
55675;BME280;41562;44.330;23.802;2024-03-02T00:56:49;99886.38;;;8.30;100.00
55675;BME280;41562;44.330;23.802;2024-03-02T00:59:17;99885.25;;;8.16;100.00
55675;BME280;41562;44.330;23.802;2024-03-02T01:01:44;99897.50;;;8.22;100.00
55675;BME280;41562;44.330;23.802;2024-03-02T01:04:12;99897.22;;;8.19;100.00
55675;BME280;41562;44.330;23.802;2024-03-02T01:06:39;99907.63;;;8.20;100.00
55675;BME280;41562;44.330;23.802;2024-03-02T01:09:06;99907.56;;;7.90;100.00
55675;BME280;41562;44.330;23.802;2024-03-02T01:11:34;99913.22;;;8.29;100.00
55675;BME280;41562;44.330;23.802;2024-03-02T01:14:01;99927.56;;;8.02;100.00
55675;BME280;41562;44.330;23.802;2024-03-02T01:16:28;99930.94;;;7.78;100.00
55675;BME280;41562;44.330;23.802;2024-03-02T01:18:56;99926.69;;;7.87;100.00
55675;BME280;41562;44.330;23.802;2024-03-02T01:21:23;99922.47;;;7.96;100.00
55675;BME280;41562;44.330;23.802;2024-03-02T01:23:50;99931.81;;;8.03;100.00
55675;BME280;41562;44.330;23.802;2024-03-02T01:26:17;99936.84;;;7.95;100.00
55675;BME280;41562;44.330;23.802;2024-03-02T01:28:45;99930.47;;;7.96;100.00
55675;BME280;41562;44.330;23.802;2024-03-02T01:31:12;99931.06;;;8.23;100.00
55675;BME280;41562;44.330;23.802;2024-03-02T01:33:39;99928.38;;;8.18;100.00
55675;BME280;41562;44.330;23.802;2024-03-02T01:36:06;99918.78;;;8.12;100.00
55675;BME280;41562;44.330;23.802;2024-03-02T01:38:34;99921.13;;;7.93;100.00
55675;BME280;41562;44.330;23.802;2024-03-02T01:41:01;99910.47;;;7.93;100.00
55675;BME280;41562;44.330;23.802;2024-03-02T01:43:29;99896.06;;;7.79;100.00
55675;BME280;41562;44.330;23.802;2024-03-02T01:45:56;99892.16;;;8.02;100.00
55675;BME280;41562;44.330;23.802;2024-03-02T01:48:24;99890.56;;;8.16;100.00
55675;BME280;41562;44.330;23.802;2024-03-02T01:50:51;99897.44;;;7.97;100.00
55675;BME280;41562;44.330;23.802;2024-03-02T01:53:18;99897.94;;;7.84;100.00
55675;BME280;41562;44.330;23.802;2024-03-02T01:55:46;99887.81;;;7.76;100.00
55675;BME280;41562;44.330;23.802;2024-03-02T01:58:13;99883.03;;;7.83;100.00
55675;BME280;41562;44.330;23.802;2024-03-02T02:00:40;99878.28;;;7.95;100.00
55675;BME280;41562;44.330;23.802;2024-03-02T02:03:08;99875.38;;;8.01;100.00
55675;BME280;41562;44.330;23.802;2024-03-02T02:05:35;99880.94;;;8.00;100.00
55675;BME280;41562;44.330;23.802;2024-03-02T02:08:03;99890.72;;;7.79;100.00
55675;BME280;41562;44.330;23.802;2024-03-02T02:10:30;99893.13;;;7.81;100.00
55675;BME280;41562;44.330;23.802;2024-03-02T02:12:57;99886.28;;;7.95;100.00
55675;BME280;41562;44.330;23.802;2024-03-02T02:15:31;99898.00;;;8.04;100.00
55675;BME280;41562;44.330;23.802;2024-03-02T02:17:58;99893.72;;;7.98;100.00
55675;BME280;41562;44.330;23.802;2024-03-02T02:20:26;99891.34;;;8.06;100.00
55675;BME280;41562;44.330;23.802;2024-03-02T02:23:01;99893.72;;;7.98;100.00
55675;BME280;41562;44.330;23.802;2024-03-02T02:25:29;99875.84;;;7.83;100.00
55675;BME280;41562;44.330;23.802;2024-03-02T02:27:57;99897.72;;;7.95;100.00
55675;BME280;41562;44.330;23.802;2024-03-02T02:30:30;99898.53;;;8.01;100.00
55675;BME280;41562;44.330;23.802;2024-03-02T02:32:58;99916.84;;;7.92;100.00
55675;BME280;41562;44.330;23.802;2024-03-02T02:35:26;99915.00;;;7.88;100.00
55675;BME280;41562;44.330;23.802;2024-03-02T02:37:55;99906.66;;;7.64;100.00
55675;BME280;41562;44.330;23.802;2024-03-02T02:40:23;99900.06;;;7.87;100.00
55675;BME280;41562;44.330;23.802;2024-03-02T02:42:51;99913.28;;;7.66;100.00
55675;BME280;41562;44.330;23.802;2024-03-02T02:45:18;99924.50;;;7.74;100.00
55675;BME280;41562;44.330;23.802;2024-03-02T02:47:45;99946.34;;;7.71;100.00
55675;BME280;41562;44.330;23.802;2024-03-02T02:50:13;99958.66;;;7.92;100.00
55675;BME280;41562;44.330;23.802;2024-03-02T02:52:41;99953.03;;;7.83;100.00
55675;BME280;41562;44.330;23.802;2024-03-02T02:55:12;99960.69;;;7.70;100.00
55675;BME280;41562;44.330;23.802;2024-03-02T02:57:41;99961.97;;;7.62;100.00
55675;BME280;41562;44.330;23.802;2024-03-02T03:00:12;99960.69;;;7.70;100.00
55675;BME280;41562;44.330;23.802;2024-03-02T03:02:43;99958.56;;;7.72;100.00
55675;BME280;41562;44.330;23.802;2024-03-02T03:05:12;99961.19;;;7.66;100.00
55675;BME280;41562;44.330;23.802;2024-03-02T03:07:40;99954.78;;;7.62;100.00
55675;BME280;41562;44.330;23.802;2024-03-02T03:10:08;99949.94;;;7.49;100.00
55675;BME280;41562;44.330;23.802;2024-03-02T03:12:36;99941.25;;;7.64;100.00
55675;BME280;41562;44.330;23.802;2024-03-02T03:15:04;99937.09;;;7.41;100.00
55675;BME280;41562;44.330;23.802;2024-03-02T03:17:31;99939.53;;;7.43;100.00
55675;BME280;41562;44.330;23.802;2024-03-02T03:19:59;99929.69;;;7.43;100.00
55675;BME280;41562;44.330;23.802;2024-03-02T03:22:26;99915.44;;;7.64;100.00
55675;BME280;41562;44.330;23.802;2024-03-02T03:24:54;99904.47;;;7.51;100.00
55675;BME280;41562;44.330;23.802;2024-03-02T03:27:21;99894.56;;;7.41;100.00
55675;BME280;41562;44.330;23.802;2024-03-02T03:29:49;99887.44;;;7.52;100.00
55675;BME280;41562;44.330;23.802;2024-03-02T03:32:16;99891.22;;;7.66;100.00
55675;BME280;41562;44.330;23.802;2024-03-02T03:34:43;99878.06;;;7.39;100.00
55675;BME280;41562;44.330;23.802;2024-03-02T03:37:11;99877.28;;;7.44;100.00
55675;BME280;41562;44.330;23.802;2024-03-02T03:39:38;99874.63;;;7.44;100.00
55675;BME280;41562;44.330;23.802;2024-03-02T03:42:05;99876.34;;;7.70;100.00
55675;BME280;41562;44.330;23.802;2024-03-02T03:44:33;99893.59;;;7.57;100.00
55675;BME280;41562;44.330;23.802;2024-03-02T03:47:00;99894.06;;;7.44;100.00
55675;BME280;41562;44.330;23.802;2024-03-02T03:49:27;99899.63;;;7.48;100.00
55675;BME280;41562;44.330;23.802;2024-03-02T03:51:55;99908.00;;;7.72;100.00
55675;BME280;41562;44.330;23.802;2024-03-02T03:54:22;99911.09;;;7.48;100.00
55675;BME280;41562;44.330;23.802;2024-03-02T03:56:49;99914.56;;;7.54;100.00
55675;BME280;41562;44.330;23.802;2024-03-02T03:59:17;99907.84;;;7.36;100.00
55675;BME280;41562;44.330;23.802;2024-03-02T04:01:44;99909.56;;;7.62;100.00
55675;BME280;41562;44.330;23.802;2024-03-02T04:04:11;99915.34;;;7.49;100.00
55675;BME280;41562;44.330;23.802;2024-03-02T04:06:39;99919.03;;;7.38;100.00
55675;BME280;41562;44.330;23.802;2024-03-02T04:09:06;99925.66;;;7.41;100.00
55675;BME280;41562;44.330;23.802;2024-03-02T04:11:33;99927.28;;;7.42;100.00
55675;BME280;41562;44.330;23.802;2024-03-02T04:14:00;99937.06;;;7.31;100.00
55675;BME280;41562;44.330;23.802;2024-03-02T04:16:27;99933.41;;;7.42;100.00
55675;BME280;41562;44.330;23.802;2024-03-02T04:18:55;99929.09;;;7.36;100.00
55675;BME280;41562;44.330;23.802;2024-03-02T04:21:22;99930.97;;;7.36;100.00
55675;BME280;41562;44.330;23.802;2024-03-02T04:23:50;99950.34;;;7.31;100.00
55675;BME280;41562;44.330;23.802;2024-03-02T04:26:17;99941.03;;;7.28;100.00
55675;BME280;41562;44.330;23.802;2024-03-02T04:28:44;99950.00;;;7.17;100.00
55675;BME280;41562;44.330;23.802;2024-03-02T04:31:11;99946.31;;;7.23;100.00
55675;BME280;41562;44.330;23.802;2024-03-02T04:33:39;99943.84;;;7.12;100.00
55675;BME280;41562;44.330;23.802;2024-03-02T04:36:06;99947.88;;;7.14;100.00
55675;BME280;41562;44.330;23.802;2024-03-02T04:38:33;99957.09;;;7.07;100.00
55675;BME280;41562;44.330;23.802;2024-03-02T04:41:01;99961.41;;;7.13;100.00
55675;BME280;41562;44.330;23.802;2024-03-02T04:43:28;99951.47;;;7.03;100.00
55675;BME280;41562;44.330;23.802;2024-03-02T04:45:55;99958.13;;;7.01;100.00
55675;BME280;41562;44.330;23.802;2024-03-02T04:48:23;99953.91;;;7.10;100.00
55675;BME280;41562;44.330;23.802;2024-03-02T04:50:50;99966.84;;;8.47;100.00
55675;BME280;41562;44.330;23.802;2024-03-02T04:53:17;99979.16;;;9.24;100.00
55675;BME280;41562;44.330;23.802;2024-03-02T04:55:45;99980.75;;;8.70;100.00
55675;BME280;41562;44.330;23.802;2024-03-02T04:58:12;99984.78;;;7.95;100.00
55675;BME280;41562;44.330;23.802;2024-03-02T05:00:39;99982.25;;;7.73;100.00
55675;BME280;41562;44.330;23.802;2024-03-02T05:03:07;99969.63;;;7.53;100.00
55675;BME280;41562;44.330;23.802;2024-03-02T05:05:34;99975.91;;;7.32;100.00
55675;BME280;41562;44.330;23.802;2024-03-02T05:08:01;99980.63;;;7.25;100.00
55675;BME280;41562;44.330;23.802;2024-03-02T05:10:28;99982.88;;;8.53;100.00
55675;BME280;41562;44.330;23.802;2024-03-02T05:12:56;99991.50;;;8.13;100.00
55675;BME280;41562;44.330;23.802;2024-03-02T05:15:23;99985.00;;;7.46;100.00
55675;BME280;41562;44.330;23.802;2024-03-02T05:17:50;99986.09;;;7.45;100.00
55675;BME280;41562;44.330;23.802;2024-03-02T05:20:18;99985.47;;;7.75;100.00
55675;BME280;41562;44.330;23.802;2024-03-02T05:22:45;99992.88;;;10.02;100.00
55675;BME280;41562;44.330;23.802;2024-03-02T05:25:12;99989.81;;;9.45;100.00
55675;BME280;41562;44.330;23.802;2024-03-02T05:27:39;100007.09;;;9.67;100.00
55675;BME280;41562;44.330;23.802;2024-03-02T05:30:07;100001.00;;;9.67;100.00
55675;BME280;41562;44.330;23.802;2024-03-02T05:32:35;99999.25;;;10.12;100.00
55675;BME280;41562;44.330;23.802;2024-03-02T05:35:03;99999.78;;;8.21;100.00
55675;BME280;41562;44.330;23.802;2024-03-02T05:37:30;99997.22;;;7.84;100.00
55675;BME280;41562;44.330;23.802;2024-03-02T05:39:57;99992.63;;;7.70;100.00
55675;BME280;41562;44.330;23.802;2024-03-02T05:42:25;99996.38;;;7.32;100.00
55675;BME280;41562;44.330;23.802;2024-03-02T05:44:52;99993.97;;;6.98;100.00
55675;BME280;41562;44.330;23.802;2024-03-02T05:47:19;100001.66;;;6.95;100.00
55675;BME280;41562;44.330;23.802;2024-03-02T05:49:47;99995.72;;;7.14;100.00
55675;BME280;41562;44.330;23.802;2024-03-02T05:52:14;99995.88;;;7.03;100.00
55675;BME280;41562;44.330;23.802;2024-03-02T05:54:41;99994.91;;;7.14;100.00
55675;BME280;41562;44.330;23.802;2024-03-02T05:57:09;100005.25;;;7.10;100.00
55675;BME280;41562;44.330;23.802;2024-03-02T05:59:36;100006.34;;;7.14;100.00
55675;BME280;41562;44.330;23.802;2024-03-02T06:02:04;100004.78;;;6.86;100.00
55675;BME280;41562;44.330;23.802;2024-03-02T06:04:32;100016.09;;;7.04;100.00
55675;BME280;41562;44.330;23.802;2024-03-02T06:06:59;100016.03;;;6.99;100.00
55675;BME280;41562;44.330;23.802;2024-03-02T06:09:27;100025.31;;;8.90;100.00
55675;BME280;41562;44.330;23.802;2024-03-02T06:11:55;100022.69;;;7.65;100.00
55675;BME280;41562;44.330;23.802;2024-03-02T06:14:22;100014.66;;;7.23;100.00
55675;BME280;41562;44.330;23.802;2024-03-02T06:16:50;100020.09;;;7.06;100.00
55675;BME280;41562;44.330;23.802;2024-03-02T06:19:18;100018.88;;;6.87;100.00
55675;BME280;41562;44.330;23.802;2024-03-02T06:21:46;100017.47;;;6.79;100.00
55675;BME280;41562;44.330;23.802;2024-03-02T06:24:14;100019.25;;;7.01;100.00
55675;BME280;41562;44.330;23.802;2024-03-02T06:26:41;100017.09;;;7.72;100.00
55675;BME280;41562;44.330;23.802;2024-03-02T06:29:09;100014.84;;;7.16;100.00
55675;BME280;41562;44.330;23.802;2024-03-02T06:31:37;100010.16;;;6.97;100.00
55675;BME280;41562;44.330;23.802;2024-03-02T06:34:04;100013.78;;;6.85;100.00
55675;BME280;41562;44.330;23.802;2024-03-02T06:36:32;100021.91;;;7.01;100.00
55675;BME280;41562;44.330;23.802;2024-03-02T06:39:00;100015.19;;;6.93;100.00
55675;BME280;41562;44.330;23.802;2024-03-02T06:41:28;100018.53;;;6.83;100.00
55675;BME280;41562;44.330;23.802;2024-03-02T06:43:55;100024.56;;;7.01;100.00
55675;BME280;41562;44.330;23.802;2024-03-02T06:46:23;100028.59;;;7.08;100.00
55675;BME280;41562;44.330;23.802;2024-03-02T06:48:50;100027.75;;;7.03;100.00
55675;BME280;41562;44.330;23.802;2024-03-02T06:51:18;100034.03;;;6.92;100.00
55675;BME280;41562;44.330;23.802;2024-03-02T06:53:45;100038.50;;;7.13;100.00
55675;BME280;41562;44.330;23.802;2024-03-02T06:56:12;100041.66;;;7.10;100.00
55675;BME280;41562;44.330;23.802;2024-03-02T06:58:40;100037.06;;;7.00;100.00
55675;BME280;41562;44.330;23.802;2024-03-02T07:01:07;100047.56;;;7.17;100.00
55675;BME280;41562;44.330;23.802;2024-03-02T07:03:34;100049.84;;;7.03;100.00
55675;BME280;41562;44.330;23.802;2024-03-02T07:06:02;100058.00;;;7.23;100.00
55675;BME280;41562;44.330;23.802;2024-03-02T07:08:29;100055.66;;;7.00;100.00
55675;BME280;41562;44.330;23.802;2024-03-02T07:10:56;100050.59;;;6.99;100.00
55675;BME280;41562;44.330;23.802;2024-03-02T07:13:24;100052.69;;;6.97;100.00
55675;BME280;41562;44.330;23.802;2024-03-02T07:15:51;100041.97;;;7.13;100.00
55675;BME280;41562;44.330;23.802;2024-03-02T07:18:18;100042.66;;;7.04;100.00
55675;BME280;41562;44.330;23.802;2024-03-02T07:20:45;100046.94;;;7.05;100.00
55675;BME280;41562;44.330;23.802;2024-03-02T07:23:13;100047.50;;;7.07;100.00
55675;BME280;41562;44.330;23.802;2024-03-02T07:25:40;100054.41;;;7.08;100.00
55675;BME280;41562;44.330;23.802;2024-03-02T07:28:10;100052.00;;;7.06;100.00
55675;BME280;41562;44.330;23.802;2024-03-02T07:30:37;100056.81;;;7.09;100.00
55675;BME280;41562;44.330;23.802;2024-03-02T07:33:05;100050.75;;;6.87;100.00
55675;BME280;41562;44.330;23.802;2024-03-02T07:35:32;100060.97;;;7.00;100.00
55675;BME280;41562;44.330;23.802;2024-03-02T07:37:59;100068.50;;;6.81;100.00
55675;BME280;41562;44.330;23.802;2024-03-02T07:40:27;100060.81;;;7.12;100.00
55675;BME280;41562;44.330;23.802;2024-03-02T07:42:54;100052.97;;;6.95;100.00
55675;BME280;41562;44.330;23.802;2024-03-02T07:45:22;100055.50;;;7.12;100.00
55675;BME280;41562;44.330;23.802;2024-03-02T07:47:49;100068.44;;;7.03;100.00
55675;BME280;41562;44.330;23.802;2024-03-02T07:50:17;100067.03;;;6.96;100.00
55675;BME280;41562;44.330;23.802;2024-03-02T07:52:44;100062.00;;;6.94;100.00
55675;BME280;41562;44.330;23.802;2024-03-02T07:55:11;100059.47;;;7.09;100.00
55675;BME280;41562;44.330;23.802;2024-03-02T07:57:38;100061.78;;;7.01;100.00
55675;BME280;41562;44.330;23.802;2024-03-02T08:00:06;100064.38;;;6.96;100.00
55675;BME280;41562;44.330;23.802;2024-03-02T08:02:34;100055.31;;;6.92;100.00
55675;BME280;41562;44.330;23.802;2024-03-02T08:05:01;100063.31;;;6.97;100.00
55675;BME280;41562;44.330;23.802;2024-03-02T08:07:28;100057.41;;;7.16;100.00
55675;BME280;41562;44.330;23.802;2024-03-02T08:09:56;100058.81;;;7.24;100.00
55675;BME280;41562;44.330;23.802;2024-03-02T08:12:23;100059.59;;;7.24;100.00
55675;BME280;41562;44.330;23.802;2024-03-02T08:14:51;100083.91;;;7.06;100.00
55675;BME280;41562;44.330;23.802;2024-03-02T08:17:18;100076.72;;;7.07;100.00
55675;BME280;41562;44.330;23.802;2024-03-02T08:19:45;100046.75;;;7.16;100.00
55675;BME280;41562;44.330;23.802;2024-03-02T08:22:13;100059.78;;;7.13;100.00
55675;BME280;41562;44.330;23.802;2024-03-02T08:24:41;100066.22;;;7.22;100.00
55675;BME280;41562;44.330;23.802;2024-03-02T08:27:08;100069.03;;;7.10;100.00
55675;BME280;41562;44.330;23.802;2024-03-02T08:29:37;100062.53;;;7.28;100.00
55675;BME280;41562;44.330;23.802;2024-03-02T08:32:05;100056.59;;;7.16;100.00
55675;BME280;41562;44.330;23.802;2024-03-02T08:34:33;100056.00;;;7.09;100.00
55675;BME280;41562;44.330;23.802;2024-03-02T08:37:04;100048.09;;;7.14;100.00
55675;BME280;41562;44.330;23.802;2024-03-02T08:39:31;100041.53;;;6.95;100.00
55675;BME280;41562;44.330;23.802;2024-03-02T08:41:58;100058.63;;;7.04;100.00
55675;BME280;41562;44.330;23.802;2024-03-02T08:44:26;100039.13;;;7.25;100.00
55675;BME280;41562;44.330;23.802;2024-03-02T08:46:53;100051.00;;;7.12;100.00
55675;BME280;41562;44.330;23.802;2024-03-02T08:49:20;100039.59;;;6.90;100.00
55675;BME280;41562;44.330;23.802;2024-03-02T08:51:48;100046.56;;;6.96;100.00
55675;BME280;41562;44.330;23.802;2024-03-02T08:54:15;100039.25;;;7.08;100.00
55675;BME280;41562;44.330;23.802;2024-03-02T08:56:42;100032.13;;;7.14;100.00
55675;BME280;41562;44.330;23.802;2024-03-02T08:59:09;100038.75;;;7.43;100.00
55675;BME280;41562;44.330;23.802;2024-03-02T09:01:37;100032.84;;;7.36;100.00
55675;BME280;41562;44.330;23.802;2024-03-02T09:04:04;100026.03;;;7.50;100.00
55675;BME280;41562;44.330;23.802;2024-03-02T09:06:32;100030.31;;;7.56;100.00
55675;BME280;41562;44.330;23.802;2024-03-02T09:08:59;100039.88;;;7.52;100.00
55675;BME280;41562;44.330;23.802;2024-03-02T09:11:26;100050.44;;;7.42;100.00
55675;BME280;41562;44.330;23.802;2024-03-02T09:13:54;100041.25;;;7.60;100.00
55675;BME280;41562;44.330;23.802;2024-03-02T09:16:21;100043.72;;;7.72;100.00
55675;BME280;41562;44.330;23.802;2024-03-02T09:18:49;100035.22;;;7.75;100.00
55675;BME280;41562;44.330;23.802;2024-03-02T09:21:16;100040.06;;;7.83;100.00
55675;BME280;41562;44.330;23.802;2024-03-02T09:23:44;100039.97;;;7.67;100.00
55675;BME280;41562;44.330;23.802;2024-03-02T09:26:11;100043.56;;;7.88;100.00
55675;BME280;41562;44.330;23.802;2024-03-02T09:28:38;100047.56;;;7.91;100.00
55675;BME280;41562;44.330;23.802;2024-03-02T09:31:09;100056.72;;;8.10;100.00
55675;BME280;41562;44.330;23.802;2024-03-02T09:33:37;100064.03;;;7.83;100.00
55675;BME280;41562;44.330;23.802;2024-03-02T09:36:05;100051.63;;;8.03;100.00
55675;BME280;41562;44.330;23.802;2024-03-02T09:38:32;100046.25;;;7.93;100.00
55675;BME280;41562;44.330;23.802;2024-03-02T09:41:00;100047.16;;;8.14;100.00
55675;BME280;41562;44.330;23.802;2024-03-02T09:43:28;100053.19;;;7.94;100.00
55675;BME280;41562;44.330;23.802;2024-03-02T09:45:56;100052.19;;;8.11;100.00
55675;BME280;41562;44.330;23.802;2024-03-02T09:48:23;100050.81;;;8.03;100.00
55675;BME280;41562;44.330;23.802;2024-03-02T09:50:50;100045.81;;;8.17;100.00
55675;BME280;41562;44.330;23.802;2024-03-02T09:53:18;100030.72;;;8.27;100.00
55675;BME280;41562;44.330;23.802;2024-03-02T09:55:46;100024.28;;;8.23;100.00
55675;BME280;41562;44.330;23.802;2024-03-02T09:58:14;100043.03;;;10.21;100.00
55675;BME280;41562;44.330;23.802;2024-03-02T10:00:41;100052.00;;;9.45;100.00
55675;BME280;41562;44.330;23.802;2024-03-02T10:03:12;100047.13;;;8.76;100.00
55675;BME280;41562;44.330;23.802;2024-03-02T10:05:39;100040.44;;;8.59;100.00
55675;BME280;41562;44.330;23.802;2024-03-02T10:08:06;100024.97;;;8.61;100.00
55675;BME280;41562;44.330;23.802;2024-03-02T10:10:41;100024.47;;;8.79;100.00
55675;BME280;41562;44.330;23.802;2024-03-02T10:13:13;100032.50;;;8.89;100.00
55675;BME280;41562;44.330;23.802;2024-03-02T10:15:41;100022.34;;;8.76;100.00
55675;BME280;41562;44.330;23.802;2024-03-02T10:18:10;100011.69;;;8.71;100.00
55675;BME280;41562;44.330;23.802;2024-03-02T10:20:39;100000.22;;;8.85;100.00
55675;BME280;41562;44.330;23.802;2024-03-02T10:23:16;100005.56;;;9.06;100.00
55675;BME280;41562;44.330;23.802;2024-03-02T10:25:44;100009.56;;;9.23;100.00
55675;BME280;41562;44.330;23.802;2024-03-02T10:28:23;99999.72;;;9.34;100.00
55675;BME280;41562;44.330;23.802;2024-03-02T10:30:51;99995.72;;;9.21;100.00
55675;BME280;41562;44.330;23.802;2024-03-02T10:33:18;99985.56;;;9.23;100.00
55675;BME280;41562;44.330;23.802;2024-03-02T10:35:48;99979.69;;;9.47;100.00
55675;BME280;41562;44.330;23.802;2024-03-02T10:38:17;99979.91;;;9.50;100.00
55675;BME280;41562;44.330;23.802;2024-03-02T10:40:47;99989.69;;;9.95;100.00
55675;BME280;41562;44.330;23.802;2024-03-02T10:43:15;100019.69;;;9.57;100.00
55675;BME280;41562;44.330;23.802;2024-03-02T10:45:43;100029.28;;;9.58;100.00
55675;BME280;41562;44.330;23.802;2024-03-02T10:48:11;100021.28;;;9.53;100.00
55675;BME280;41562;44.330;23.802;2024-03-02T10:50:38;100005.84;;;9.40;100.00
55675;BME280;41562;44.330;23.802;2024-03-02T10:53:06;99997.03;;;9.34;100.00
55675;BME280;41562;44.330;23.802;2024-03-02T10:55:33;99999.41;;;9.31;100.00
55675;BME280;41562;44.330;23.802;2024-03-02T10:58:04;99999.16;;;9.37;100.00
55675;BME280;41562;44.330;23.802;2024-03-02T11:00:33;100002.09;;;9.20;100.00
55675;BME280;41562;44.330;23.802;2024-03-02T11:03:06;99989.28;;;9.33;100.00
55675;BME280;41562;44.330;23.802;2024-03-02T11:05:36;100010.38;;;9.29;100.00
55675;BME280;41562;44.330;23.802;2024-03-02T11:08:12;100003.16;;;9.45;100.00
55675;BME280;41562;44.330;23.802;2024-03-02T11:11:16;100005.81;;;9.50;100.00
55675;BME280;41562;44.330;23.802;2024-03-02T11:13:49;100000.50;;;9.40;100.00
55675;BME280;41562;44.330;23.802;2024-03-02T11:16:32;100001.75;;;9.67;100.00
55675;BME280;41562;44.330;23.802;2024-03-02T11:19:05;100013.28;;;9.43;100.00
55675;BME280;41562;44.330;23.802;2024-03-02T11:21:34;100011.69;;;9.57;100.00
55675;BME280;41562;44.330;23.802;2024-03-02T11:26:48;99995.06;;;9.85;100.00
55675;BME280;41562;44.330;23.802;2024-03-02T11:32:18;99982.25;;;9.82;100.00
55675;BME280;41562;44.330;23.802;2024-03-02T11:34:50;99993.19;;;9.91;100.00
55675;BME280;41562;44.330;23.802;2024-03-02T11:37:18;100001.38;;;10.15;100.00
55675;BME280;41562;44.330;23.802;2024-03-02T11:39:49;100000.41;;;9.85;100.00
55675;BME280;41562;44.330;23.802;2024-03-02T11:42:17;99996.13;;;9.84;100.00
55675;BME280;41562;44.330;23.802;2024-03-02T11:44:46;99993.44;;;9.89;100.00
55675;BME280;41562;44.330;23.802;2024-03-02T11:47:17;99981.63;;;10.11;100.00
55675;BME280;41562;44.330;23.802;2024-03-02T11:49:46;99977.59;;;10.23;100.00
55675;BME280;41562;44.330;23.802;2024-03-02T11:52:16;99976.16;;;10.41;100.00
55675;BME280;41562;44.330;23.802;2024-03-02T11:54:45;99970.69;;;10.56;100.00
55675;BME280;41562;44.330;23.802;2024-03-02T11:57:14;99966.38;;;10.65;100.00
55675;BME280;41562;44.330;23.802;2024-03-02T11:59:42;99969.03;;;10.65;100.00
55675;BME280;41562;44.330;23.802;2024-03-02T12:02:19;99966.16;;;10.57;100.00
55675;BME280;41562;44.330;23.802;2024-03-02T12:04:48;99967.13;;;10.71;100.00
55675;BME280;41562;44.330;23.802;2024-03-02T12:07:20;99960.44;;;10.73;100.00
55675;BME280;41562;44.330;23.802;2024-03-02T12:09:48;99956.75;;;10.64;100.00
55675;BME280;41562;44.330;23.802;2024-03-02T12:12:16;99964.19;;;10.72;100.00
55675;BME280;41562;44.330;23.802;2024-03-02T12:14:50;99961.47;;;10.77;100.00
55675;BME280;41562;44.330;23.802;2024-03-02T12:17:18;99951.97;;;10.95;100.00
55675;BME280;41562;44.330;23.802;2024-03-02T12:19:45;99960.47;;;11.02;100.00
55675;BME280;41562;44.330;23.802;2024-03-02T12:22:12;99955.44;;;10.96;100.00
55675;BME280;41562;44.330;23.802;2024-03-02T12:24:41;99939.53;;;10.80;100.00
55675;BME280;41562;44.330;23.802;2024-03-02T12:27:09;99932.97;;;10.97;100.00
55675;BME280;41562;44.330;23.802;2024-03-02T12:29:36;99939.44;;;10.91;100.00
55675;BME280;41562;44.330;23.802;2024-03-02T12:32:03;99933.66;;;11.07;100.00
55675;BME280;41562;44.330;23.802;2024-03-02T12:34:32;99943.63;;;11.02;100.00
55675;BME280;41562;44.330;23.802;2024-03-02T12:36:59;99948.78;;;10.93;100.00
55675;BME280;41562;44.330;23.802;2024-03-02T12:39:27;99915.31;;;10.96;100.00
55675;BME280;41562;44.330;23.802;2024-03-02T12:41:54;99924.41;;;11.00;100.00
55675;BME280;41562;44.330;23.802;2024-03-02T12:44:21;99930.28;;;11.25;100.00
55675;BME280;41562;44.330;23.802;2024-03-02T12:46:49;99934.63;;;11.21;100.00
55675;BME280;41562;44.330;23.802;2024-03-02T12:49:16;99927.66;;;11.20;100.00
55675;BME280;41562;44.330;23.802;2024-03-02T12:51:43;99925.19;;;11.29;100.00
55675;BME280;41562;44.330;23.802;2024-03-02T12:54:11;99926.13;;;11.43;100.00
55675;BME280;41562;44.330;23.802;2024-03-02T12:56:38;99930.13;;;11.41;100.00